This is the latest recevied weather packets stored in our database for station/object DL4NBA-1. If no packets are shown the sender has not sent any weather packets the latest 10 day(s).
| Time | Temp. | Humidity | Pressure | Rain* | Wind** | Luminosity | Snow |
|---|---|---|---|---|---|---|---|
| 1777901348 | 26.11° C | - | - | 0 mm | 1.34 m/s, 152° | - | - |
| 1777901049 | 27.78° C | - | - | 0 mm | 1.34 m/s, 170° | - | - |
| 1777900743 | 26.67° C | - | - | 0 mm | 1.79 m/s, 45° | - | - |
| 1777900145 | 27.22° C | - | - | 0 mm | 0.89 m/s, 17° | - | - |
| 1777899547 | 26.11° C | - | - | 0 mm | 0 m/s | - | - |
| 1777899245 | 25° C | - | - | 0 mm | 0.89 m/s, 235° | - | - |
| 1777898647 | 27.22° C | - | - | 0 mm | 0.45 m/s, 146° | - | - |
| 1777898349 | 23.89° C | - | - | 0 mm | 1.34 m/s, 134° | - | - |
| 1777897747 | 23.89° C | - | - | 0 mm | 2.68 m/s, 290° | - | - |
| 1777897448 | 23.89° C | - | - | 0 mm | 3.13 m/s, 315° | - | - |
| 1777897150 | 24.44° C | - | - | 0 mm | 0.45 m/s, 257° | - | - |
| 1777896851 | 25° C | - | - | 0 mm | 0 m/s | - | - |
| 1777896552 | 26.67° C | - | - | 0 mm | 1.34 m/s, 124° | - | - |
| 1777896250 | 27.22° C | - | - | 0 mm | 1.34 m/s, 174° | - | - |
| 1777895950 | 26.11° C | - | - | 0 mm | 3.13 m/s, 162° | - | - |
| 1777895651 | 23.89° C | - | - | 0 mm | 2.24 m/s, 278° | - | - |
| 1777895350 | 25.56° C | - | - | 0 mm | 0 m/s | - | - |
| 1777895052 | 24.44° C | - | - | 0 mm | 0.89 m/s, 193° | - | - |
| 1777894750 | 23.33° C | - | - | 0 mm | 1.34 m/s, 186° | - | - |
| 1777894451 | 23.89° C | - | - | 0 mm | 2.24 m/s, 214° | - | - |
| 1777894149 | 25° C | - | - | 0 mm | 1.79 m/s, 143° | - | - |
| 1777893552 | 22.78° C | - | - | 0 mm | 3.13 m/s, 218° | - | - |
| 1777892951 | 23.89° C | - | - | 0 mm | 2.68 m/s, 142° | - | - |
| 1777892653 | 24.44° C | - | - | 0 mm | 0.89 m/s, 153° | - | - |
| 1777892354 | 22.22° C | - | - | 0 mm | 2.68 m/s, 180° | - | - |
* Rain latest hour (hover to see other rain measurements)
** Current wind speed in m/s (hover to see current wind gust speed)